createdAt,value
2023-03-16T00:00:36.254Z,0.84
2023-03-16T00:01:36.302Z,0.86
2023-03-16T00:02:36.224Z,0.83
2023-03-16T00:03:36.324Z,0.90
2023-03-16T00:04:36.169Z,0.87
2023-03-16T00:05:36.157Z,0.84
2023-03-16T00:06:36.170Z,0.78
2023-03-16T00:07:36.119Z,0.79
2023-03-16T00:08:36.099Z,0.72
2023-03-16T00:09:36.071Z,0.78
2023-03-16T00:10:36.043Z,0.73
2023-03-16T00:11:36.041Z,0.72
2023-03-16T00:12:36.015Z,0.70
2023-03-16T00:13:35.979Z,0.76
2023-03-16T00:14:35.985Z,0.78
2023-03-16T00:15:35.937Z,0.80
2023-03-16T00:16:35.977Z,0.72
2023-03-16T00:17:35.898Z,0.73
2023-03-16T00:18:35.925Z,0.69
2023-03-16T00:19:35.854Z,0.80
2023-03-16T00:20:35.831Z,0.76
2023-03-16T00:21:35.813Z,0.84
2023-03-16T00:22:35.794Z,0.72
2023-03-16T00:23:35.772Z,0.79
2023-03-16T00:24:35.774Z,0.76
2023-03-16T00:25:35.727Z,0.70
2023-03-16T00:26:35.715Z,0.78
2023-03-16T00:27:35.686Z,0.76
2023-03-16T00:28:35.670Z,0.78
2023-03-16T00:29:35.666Z,0.76
2023-03-16T00:30:35.619Z,0.72
2023-03-16T00:31:35.664Z,0.62
2023-03-16T00:32:35.673Z,0.58
2023-03-16T00:33:35.554Z,0.80
2023-03-16T00:34:35.535Z,0.66
2023-03-16T00:35:35.561Z,0.65
2023-03-16T00:36:35.538Z,0.75
2023-03-16T00:37:35.496Z,0.72
2023-03-16T00:38:35.445Z,0.70
2023-03-16T00:39:35.425Z,0.70
2023-03-16T00:40:35.400Z,0.68
2023-03-16T00:41:35.408Z,0.72
2023-03-16T00:42:35.360Z,0.65
2023-03-16T00:43:35.338Z,0.60
2023-03-16T00:44:35.340Z,0.65
2023-03-16T00:45:35.323Z,0.68
2023-03-16T00:46:35.304Z,0.68
2023-03-16T00:47:35.262Z,0.68
2023-03-16T00:48:35.232Z,0.66
2023-03-16T00:49:35.210Z,0.68
2023-03-16T00:50:35.191Z,0.69
2023-03-16T00:51:35.167Z,0.55
2023-03-16T00:52:35.149Z,0.55
2023-03-16T00:53:35.152Z,0.62
2023-03-16T00:54:35.110Z,0.65
2023-03-16T00:55:35.096Z,0.66
2023-03-16T00:56:35.060Z,0.58
2023-03-16T00:57:35.068Z,0.57
2023-03-16T00:58:35.046Z,0.66
2023-03-16T00:59:34.999Z,0.62
2023-03-16T01:00:35.011Z,0.70
2023-03-16T01:01:35.031Z,0.49
2023-03-16T01:02:35.001Z,0.66
2023-03-16T01:03:34.982Z,0.72
2023-03-16T01:04:34.944Z,0.58
2023-03-16T01:05:34.878Z,0.60
2023-03-16T01:06:34.856Z,0.46
2023-03-16T01:07:34.830Z,0.53
2023-03-16T01:08:34.838Z,0.57
2023-03-16T01:09:34.786Z,0.55
2023-03-16T01:10:34.792Z,0.50
2023-03-16T01:11:34.745Z,0.50
2023-03-16T01:12:34.727Z,0.58
2023-03-16T01:13:34.701Z,0.57
2023-03-16T01:14:34.698Z,0.55
2023-03-16T01:15:34.698Z,0.57
2023-03-16T01:16:34.708Z,0.55
2023-03-16T01:17:34.636Z,0.57
2023-03-16T01:18:34.616Z,0.50
2023-03-16T01:19:34.576Z,0.49
2023-03-16T01:20:34.551Z,0.41
2023-03-16T01:21:34.558Z,0.49
2023-03-16T01:22:34.509Z,0.46
2023-03-16T01:23:34.507Z,0.49
2023-03-16T01:24:34.477Z,0.44
2023-03-16T01:25:34.471Z,0.35
2023-03-16T01:26:34.483Z,0.36
2023-03-16T01:27:34.407Z,0.42
2023-03-16T01:28:34.408Z,0.35
2023-03-16T01:29:34.360Z,0.39
2023-03-16T01:30:34.371Z,0.35
2023-03-16T01:31:34.319Z,0.35
2023-03-16T01:32:34.400Z,0.35
2023-03-16T01:33:34.274Z,0.33
2023-03-16T01:34:34.251Z,0.26
2023-03-16T01:35:34.289Z,0.31
2023-03-16T01:36:34.250Z,0.29
2023-03-16T01:37:34.195Z,0.21
2023-03-16T01:38:34.169Z,0.21
2023-03-16T01:39:34.181Z,0.17
2023-03-16T01:40:34.125Z,0.31
2023-03-16T01:41:34.107Z,0.17
2023-03-16T01:42:34.081Z,0.23
2023-03-16T01:43:34.060Z,0.15
2023-03-16T01:44:34.067Z,0.18
2023-03-16T01:45:34.017Z,0.15
2023-03-16T01:46:34.057Z,0.18
2023-03-16T01:47:33.973Z,0.08
2023-03-16T01:48:33.978Z,0.21
2023-03-16T01:49:33.984Z,0.14
2023-03-16T01:50:33.911Z,0.13
2023-03-16T01:51:33.888Z,0.21
2023-03-16T01:52:33.868Z,0.10
2023-03-16T01:53:33.844Z,0.08
2023-03-16T01:54:33.855Z,0.10
2023-03-16T01:55:33.801Z,0.18
2023-03-16T01:56:33.808Z,0.13
2023-03-16T01:57:33.810Z,0.13
2023-03-16T01:58:33.740Z,0.15
2023-03-16T01:59:33.721Z,0.17
2023-03-16T02:00:33.722Z,0.20
2023-03-16T02:01:33.703Z,0.17
2023-03-16T02:02:33.654Z,0.11
2023-03-16T02:03:33.658Z,0.18
2023-03-16T02:04:33.689Z,0.15
2023-03-16T02:05:33.588Z,0.15
2023-03-16T02:06:33.566Z,0.23
2023-03-16T02:07:33.551Z,0.15
2023-03-16T02:08:33.520Z,0.10
2023-03-16T02:09:33.502Z,0.11
2023-03-16T02:10:33.482Z,0.15
2023-03-16T02:11:33.461Z,0.14
2023-03-16T02:12:33.495Z,0.18
2023-03-16T02:13:33.437Z,0.18
2023-03-16T02:14:33.402Z,0.17
2023-03-16T02:15:33.412Z,0.10
2023-03-16T02:16:33.364Z,0.20
2023-03-16T02:17:33.341Z,0.23
2023-03-16T02:18:33.335Z,0.11
2023-03-16T02:19:33.325Z,0.20
2023-03-16T02:20:33.272Z,0.20
2023-03-16T02:21:33.249Z,0.23
2023-03-16T02:22:33.229Z,0.20
2023-03-16T02:23:33.202Z,0.14
2023-03-16T02:24:33.251Z,0.13
2023-03-16T02:25:33.157Z,0.14
2023-03-16T02:26:33.149Z,0.20
2023-03-16T02:27:33.118Z,0.23
2023-03-16T02:28:33.096Z,0.17
2023-03-16T02:29:33.076Z,0.26
2023-03-16T02:30:33.063Z,0.20
2023-03-16T02:31:33.071Z,0.18
2023-03-16T02:32:33.033Z,0.23
2023-03-16T02:33:32.988Z,0.13
2023-03-16T02:34:32.994Z,0.21
2023-03-16T02:35:32.961Z,0.21
2023-03-16T02:36:32.935Z,0.26
2023-03-16T02:37:32.903Z,0.24
2023-03-16T02:38:32.899Z,0.26
2023-03-16T02:39:32.886Z,0.24
2023-03-16T02:40:32.837Z,0.17
2023-03-16T02:41:32.816Z,0.24
2023-03-16T02:42:32.799Z,0.24
2023-03-16T02:43:32.778Z,0.26
2023-03-16T02:44:32.750Z,0.24
2023-03-16T02:45:32.738Z,0.20
2023-03-16T02:46:32.811Z,0.17
2023-03-16T02:47:32.685Z,0.21
2023-03-16T02:48:32.703Z,0.24
2023-03-16T02:49:32.652Z,0.21
2023-03-16T02:50:32.622Z,0.24
2023-03-16T02:51:32.597Z,0.21
2023-03-16T02:52:32.589Z,0.20
2023-03-16T02:53:32.597Z,0.24
2023-03-16T02:54:32.541Z,0.20
2023-03-16T02:55:32.518Z,0.21
2023-03-16T02:56:32.498Z,0.11
2023-03-16T02:57:32.541Z,0.15
2023-03-16T02:58:32.452Z,0.23
2023-03-16T02:59:32.458Z,0.15
2023-03-16T03:00:32.411Z,0.07
2023-03-16T03:01:32.382Z,0.04
2023-03-16T03:02:32.365Z,0.10
2023-03-16T03:03:32.395Z,0.08
2023-03-16T03:04:32.320Z,0.00
2023-03-16T03:05:32.305Z,0.07
2023-03-16T03:06:32.309Z,0.13
2023-03-16T03:07:32.281Z,0.10
2023-03-16T03:08:32.240Z,0.11
2023-03-16T03:09:32.214Z,0.10
2023-03-16T03:10:32.192Z,0.03
2023-03-16T03:11:32.171Z,0.10
2023-03-16T03:12:32.146Z,0.13
2023-03-16T03:13:32.126Z,0.11
2023-03-16T03:14:32.164Z,0.17
2023-03-16T03:15:32.083Z,0.17
2023-03-16T03:16:32.075Z,0.10
2023-03-16T03:17:32.040Z,0.11
2023-03-16T03:18:32.041Z,0.15
2023-03-16T03:19:31.994Z,0.04
2023-03-16T03:20:32.013Z,0.08
2023-03-16T03:21:31.956Z,-0.01
2023-03-16T03:22:31.932Z,0.07
2023-03-16T03:23:31.952Z,0.10
2023-03-16T03:24:31.904Z,0.03
2023-03-16T03:25:31.874Z,0.03
2023-03-16T03:26:31.851Z,-0.07
2023-03-16T03:27:31.867Z,0.10
2023-03-16T03:28:31.817Z,-0.03
2023-03-16T03:29:31.806Z,0.00
2023-03-16T03:30:31.759Z,-0.03
2023-03-16T03:31:31.776Z,0.00
2023-03-16T03:32:31.802Z,0.04
2023-03-16T03:33:31.728Z,-0.07
2023-03-16T03:34:31.713Z,0.00
2023-03-16T03:35:31.724Z,0.03
2023-03-16T03:36:31.659Z,0.04
2023-03-16T03:37:31.627Z,-0.03
2023-03-16T03:38:31.656Z,0.04
2023-03-16T03:39:31.564Z,0.00
2023-03-16T03:40:31.554Z,0.00
2023-03-16T03:41:31.525Z,-0.03
2023-03-16T03:42:31.501Z,0.03
2023-03-16T03:43:31.513Z,-0.05
2023-03-16T03:44:31.462Z,-0.10
2023-03-16T03:45:31.445Z,-0.05
2023-03-16T03:46:31.600Z,-0.05
2023-03-16T03:47:31.390Z,0.03
2023-03-16T03:48:31.408Z,-0.01
2023-03-16T03:49:31.352Z,-0.14
2023-03-16T03:50:31.330Z,0.02
2023-03-16T03:51:31.304Z,-0.01
2023-03-16T03:52:31.288Z,-0.05
2023-03-16T03:53:31.341Z,-0.14
2023-03-16T03:54:31.240Z,-0.18
2023-03-16T03:55:31.218Z,-0.15
2023-03-16T03:56:31.228Z,-0.15
2023-03-16T03:57:31.173Z,-0.11
2023-03-16T03:58:31.167Z,-0.05
2023-03-16T03:59:31.157Z,-0.15
2023-03-16T04:00:31.112Z,0.03
2023-03-16T04:01:31.086Z,-0.15
2023-03-16T04:02:31.204Z,-0.14
2023-03-16T04:03:31.110Z,-0.15
2023-03-16T04:04:31.069Z,-0.14
2023-03-16T04:05:31.001Z,-0.19
2023-03-16T04:06:30.989Z,-0.18
2023-03-16T04:07:30.967Z,-0.21
2023-03-16T04:08:30.935Z,-0.04
2023-03-16T04:09:30.942Z,-0.11
2023-03-16T04:10:30.897Z,-0.16
2023-03-16T04:11:30.872Z,-0.10
2023-03-16T04:12:30.859Z,-0.15
2023-03-16T04:13:30.867Z,-0.07
2023-03-16T04:14:30.809Z,-0.14
2023-03-16T04:15:30.782Z,-0.15
2023-03-16T04:16:30.863Z,-0.16
2023-03-16T04:17:30.746Z,-0.08
2023-03-16T04:18:30.743Z,-0.11
2023-03-16T04:19:30.721Z,-0.01
2023-03-16T04:20:30.676Z,-0.11
2023-03-16T04:21:30.653Z,0.02
2023-03-16T04:22:30.632Z,-0.01
2023-03-16T04:23:30.607Z,-0.05
2023-03-16T04:24:30.631Z,0.02
2023-03-16T04:25:30.715Z,0.07
2023-03-16T04:26:30.549Z,0.07
2023-03-16T04:27:30.522Z,0.07
2023-03-16T04:28:30.516Z,0.08
2023-03-16T04:29:30.480Z,0.14
2023-03-16T04:30:30.817Z,0.03
2023-03-16T04:31:30.449Z,0.08
2023-03-16T04:32:30.465Z,0.07
2023-03-16T04:33:30.423Z,0.13
2023-03-16T04:34:30.376Z,0.11
2023-03-16T04:35:30.498Z,0.18
2023-03-16T04:36:30.338Z,0.17
2023-03-16T04:37:30.308Z,0.08
2023-03-16T04:38:30.285Z,0.14
2023-03-16T04:39:30.264Z,0.26
2023-03-16T04:40:30.246Z,0.14
2023-03-16T04:41:30.251Z,0.23
2023-03-16T04:42:30.200Z,0.31
2023-03-16T04:43:30.208Z,0.33
2023-03-16T04:44:30.189Z,0.31
2023-03-16T04:45:30.143Z,0.39
2023-03-16T04:46:30.228Z,0.36
2023-03-16T04:47:30.093Z,0.41
2023-03-16T04:48:30.112Z,0.41
2023-03-16T04:49:30.081Z,0.46
2023-03-16T04:50:30.268Z,0.42
2023-03-16T04:51:30.014Z,0.51
2023-03-16T04:52:29.982Z,0.51
2023-03-16T04:53:29.966Z,0.58
2023-03-16T04:54:30.003Z,0.61
2023-03-16T04:55:30.106Z,0.47
2023-03-16T04:56:29.899Z,0.46
2023-03-16T04:57:29.876Z,0.57
2023-03-16T04:58:29.859Z,0.62
2023-03-16T04:59:29.833Z,0.69
2023-03-16T05:00:30.396Z,0.53
2023-03-16T05:01:29.849Z,0.53
2023-03-16T05:02:29.781Z,0.55
2023-03-16T05:03:29.748Z,0.49
2023-03-16T05:04:29.727Z,0.60
2023-03-16T05:05:29.789Z,0.60
2023-03-16T05:06:29.683Z,0.55
2023-03-16T05:07:29.660Z,0.57
2023-03-16T05:08:29.658Z,0.55
2023-03-16T05:09:29.652Z,0.69
2023-03-16T05:10:30.041Z,0.70
2023-03-16T05:11:29.584Z,0.61
2023-03-16T05:12:29.554Z,0.68
2023-03-16T05:13:29.540Z,0.47
2023-03-16T05:14:29.515Z,0.65
2023-03-16T05:15:29.523Z,0.60
2023-03-16T05:16:29.598Z,0.51
2023-03-16T05:17:29.451Z,0.66
2023-03-16T05:18:29.437Z,0.55
2023-03-16T05:19:29.405Z,0.57
2023-03-16T05:20:29.741Z,0.69
2023-03-16T05:21:29.361Z,0.66
2023-03-16T05:22:29.348Z,0.61
2023-03-16T05:23:29.322Z,0.65
2023-03-16T05:24:29.298Z,0.65
2023-03-16T05:25:29.277Z,0.61
2023-03-16T05:26:29.285Z,0.66
2023-03-16T05:27:29.231Z,0.61
2023-03-16T05:28:29.218Z,0.75
2023-03-16T05:29:29.194Z,0.78
2023-03-16T05:30:29.665Z,0.68
2023-03-16T05:31:29.211Z,0.68
2023-03-16T05:32:29.210Z,0.78
2023-03-16T05:33:29.130Z,0.72
2023-03-16T05:34:29.085Z,0.83
2023-03-16T05:35:29.121Z,0.78
2023-03-16T05:36:29.043Z,0.78
2023-03-16T05:37:29.030Z,0.76
2023-03-16T05:38:29.004Z,0.87
2023-03-16T05:39:29.005Z,0.80
2023-03-16T05:40:29.516Z,0.80
2023-03-16T05:41:29.002Z,0.88
2023-03-16T05:42:28.916Z,0.87
2023-03-16T05:43:28.920Z,0.83
2023-03-16T05:44:28.878Z,0.84
2023-03-16T05:45:28.862Z,0.87
2023-03-16T05:46:28.912Z,0.88
2023-03-16T05:47:28.831Z,0.87
2023-03-16T05:48:28.859Z,0.84
2023-03-16T05:49:28.766Z,0.84
2023-03-16T05:50:29.050Z,0.88
2023-03-16T05:51:28.734Z,0.87
2023-03-16T05:52:28.717Z,0.90
2023-03-16T05:53:28.768Z,0.88
2023-03-16T05:54:28.665Z,0.94
2023-03-16T05:55:28.650Z,0.90
2023-03-16T05:56:28.632Z,0.90
2023-03-16T05:57:28.597Z,0.93
2023-03-16T05:58:28.677Z,0.93
2023-03-16T05:59:28.559Z,0.96
2023-03-16T06:00:28.750Z,0.93
2023-03-16T06:01:28.618Z,0.90
2023-03-16T06:02:28.521Z,0.98
2023-03-16T06:03:28.485Z,1.04
2023-03-16T06:04:28.516Z,1.02
2023-03-16T06:05:28.454Z,0.98
2023-03-16T06:06:28.440Z,1.04
2023-03-16T06:07:29.232Z,1.05
2023-03-16T06:08:28.361Z,1.06
2023-03-16T06:09:28.373Z,1.06
2023-03-16T06:10:28.736Z,1.09
2023-03-16T06:11:28.303Z,1.05
2023-03-16T06:12:28.278Z,1.12
2023-03-16T06:13:28.258Z,1.14
2023-03-16T06:14:28.261Z,1.16
2023-03-16T06:15:28.214Z,1.12
2023-03-16T06:16:28.257Z,1.23
2023-03-16T06:17:28.176Z,1.30
2023-03-16T06:18:28.149Z,1.22
2023-03-16T06:19:28.162Z,1.40
2023-03-16T06:20:36.067Z,1.33
2023-03-16T06:21:28.112Z,1.44
2023-03-16T06:22:28.065Z,1.47
2023-03-16T06:23:28.044Z,1.51
2023-03-16T06:24:28.049Z,1.52
2023-03-16T06:25:28.074Z,1.48
2023-03-16T06:26:27.977Z,1.52
2023-03-16T06:27:27.957Z,1.44
2023-03-16T06:28:27.937Z,1.58
2023-03-16T06:29:27.916Z,1.62
2023-03-16T06:30:28.128Z,1.62
2023-03-16T06:31:27.894Z,1.63
2023-03-16T06:32:27.880Z,1.54
2023-03-16T06:33:27.835Z,1.65
2023-03-16T06:34:27.872Z,1.63
2023-03-16T06:35:27.797Z,1.63
2023-03-16T06:36:27.777Z,1.60
2023-03-16T06:37:27.755Z,1.68
2023-03-16T06:38:27.725Z,1.65
2023-03-16T06:39:27.710Z,1.69
2023-03-16T06:40:28.004Z,1.73
2023-03-16T06:41:27.663Z,1.63
2023-03-16T06:42:27.646Z,1.69
2023-03-16T06:43:27.624Z,1.80
2023-03-16T06:44:27.599Z,1.77
2023-03-16T06:45:27.614Z,1.72
2023-03-16T06:46:27.558Z,1.88
2023-03-16T06:47:27.537Z,1.83
2023-03-16T06:48:27.518Z,1.84
2023-03-16T06:49:27.497Z,1.86
2023-03-16T06:50:27.803Z,1.99
2023-03-16T06:51:27.530Z,1.91
2023-03-16T06:52:27.440Z,1.99
2023-03-16T06:53:27.415Z,1.99
2023-03-16T06:54:27.391Z,2.10
2023-03-16T06:55:27.383Z,2.16
2023-03-16T06:56:27.356Z,2.24
2023-03-16T06:57:27.358Z,2.16
2023-03-16T06:58:27.347Z,2.18
2023-03-16T06:59:27.288Z,2.28
2023-03-16T07:00:27.618Z,2.31
2023-03-16T07:01:27.265Z,2.28
2023-03-16T07:02:27.233Z,2.35
2023-03-16T07:03:27.207Z,2.39
2023-03-16T07:04:27.213Z,2.53
2023-03-16T07:05:27.168Z,2.42
2023-03-16T07:06:27.143Z,2.42
2023-03-16T07:07:27.157Z,2.57
2023-03-16T07:08:27.109Z,2.56
2023-03-16T07:09:27.081Z,2.57
2023-03-16T07:10:27.499Z,2.64
2023-03-16T07:11:27.043Z,2.63
2023-03-16T07:12:27.017Z,2.61
2023-03-16T07:13:27.014Z,2.66
2023-03-16T07:14:26.984Z,2.69
2023-03-16T07:15:26.961Z,2.67
2023-03-16T07:16:27.080Z,2.66
2023-03-16T07:17:26.916Z,2.84
2023-03-16T07:18:26.901Z,2.82
2023-03-16T07:19:26.876Z,2.77
2023-03-16T07:20:27.372Z,2.82
2023-03-16T07:21:26.840Z,2.77
2023-03-16T07:22:26.817Z,2.85
2023-03-16T07:23:26.794Z,2.95
2023-03-16T07:24:26.810Z,2.90
2023-03-16T07:25:26.756Z,2.89
2023-03-16T07:26:26.761Z,2.92
2023-03-16T07:27:26.713Z,2.90
2023-03-16T07:28:26.701Z,2.99
2023-03-16T07:29:26.673Z,2.97
2023-03-16T07:30:27.019Z,3.02
2023-03-16T07:31:26.733Z,2.97
2023-03-16T07:32:26.649Z,3.06
2023-03-16T07:33:26.594Z,2.93
2023-03-16T07:34:26.573Z,2.96
2023-03-16T07:35:26.584Z,2.97
2023-03-16T07:36:26.564Z,2.95
2023-03-16T07:37:26.552Z,3.06
2023-03-16T07:38:26.506Z,3.06
2023-03-16T07:39:26.478Z,3.02
2023-03-16T07:40:27.066Z,3.06
2023-03-16T07:41:26.436Z,3.13
2023-03-16T07:42:26.416Z,3.10
2023-03-16T07:43:26.396Z,3.15
2023-03-16T07:44:26.373Z,3.18
2023-03-16T07:45:26.604Z,3.26
2023-03-16T07:46:26.544Z,3.13
2023-03-16T07:47:26.743Z,3.35
2023-03-16T07:48:26.297Z,3.29
2023-03-16T07:49:26.274Z,3.29
2023-03-16T07:50:26.732Z,3.42
2023-03-16T07:51:26.241Z,3.35
2023-03-16T07:52:26.292Z,3.43
2023-03-16T07:53:26.202Z,3.43
2023-03-16T07:54:26.176Z,3.42
2023-03-16T07:55:26.156Z,3.60
2023-03-16T07:56:27.219Z,3.58
2023-03-16T07:57:26.117Z,3.58
2023-03-16T07:58:26.146Z,3.68
2023-03-16T07:59:26.076Z,3.58
2023-03-16T08:00:26.097Z,3.66
2023-03-16T08:01:26.041Z,3.66
2023-03-16T08:02:26.067Z,3.75
2023-03-16T08:03:26.063Z,3.72
2023-03-16T08:04:25.982Z,3.86
2023-03-16T08:05:27.715Z,3.79
2023-03-16T08:06:25.938Z,3.84
2023-03-16T08:07:25.924Z,3.86
2023-03-16T08:08:25.931Z,3.90
2023-03-16T08:09:25.880Z,3.87
2023-03-16T08:10:25.955Z,3.93
2023-03-16T08:11:25.843Z,4.02
2023-03-16T08:12:25.883Z,4.14
2023-03-16T08:13:25.807Z,4.15
2023-03-16T08:14:25.784Z,4.15
2023-03-16T08:15:25.799Z,4.18
2023-03-16T08:16:25.783Z,4.27
2023-03-16T08:17:25.729Z,4.26
2023-03-16T08:18:25.708Z,4.24
2023-03-16T08:19:25.691Z,4.36
2023-03-16T08:20:25.697Z,4.36
2023-03-16T08:21:25.655Z,4.40
2023-03-16T08:22:25.642Z,4.51
2023-03-16T08:23:25.621Z,4.51
2023-03-16T08:24:25.603Z,4.45
2023-03-16T08:25:25.611Z,4.54
2023-03-16T08:26:25.561Z,4.50
2023-03-16T08:27:25.545Z,4.47
2023-03-16T08:28:25.567Z,4.58
2023-03-16T08:29:25.534Z,4.55
2023-03-16T08:30:25.486Z,4.63
2023-03-16T08:31:25.552Z,4.66
2023-03-16T08:32:25.496Z,4.72
2023-03-16T08:33:25.425Z,4.85
2023-03-16T08:34:25.409Z,4.85
2023-03-16T08:35:25.413Z,4.91
2023-03-16T08:36:25.370Z,4.97
2023-03-16T08:37:25.348Z,5.02
2023-03-16T08:38:25.335Z,5.00
2023-03-16T08:39:25.324Z,5.07
2023-03-16T08:40:25.322Z,5.09
2023-03-16T08:41:25.287Z,5.13
2023-03-16T08:42:25.257Z,5.07
2023-03-16T08:43:25.248Z,5.15
2023-03-16T08:44:25.229Z,5.15
2023-03-16T08:45:25.233Z,5.31
2023-03-16T08:46:25.271Z,5.22
2023-03-16T08:47:25.161Z,5.31
2023-03-16T08:48:25.146Z,5.45
2023-03-16T08:49:25.127Z,5.43
2023-03-16T08:50:25.115Z,5.49
2023-03-16T08:51:25.090Z,5.43
2023-03-16T08:52:25.180Z,5.54
2023-03-16T08:53:25.058Z,5.53
2023-03-16T08:54:25.085Z,5.56
2023-03-16T08:55:25.050Z,5.61
2023-03-16T08:56:24.998Z,5.67
2023-03-16T08:57:25.058Z,5.63
2023-03-16T08:58:24.962Z,5.72
2023-03-16T08:59:30.159Z,5.81
2023-03-16T09:00:24.961Z,5.65
2023-03-16T09:01:24.921Z,5.74
2023-03-16T09:02:25.007Z,5.81
2023-03-16T09:03:24.909Z,5.86
2023-03-16T09:04:24.931Z,5.79
2023-03-16T09:05:24.832Z,5.79
2023-03-16T09:06:24.867Z,5.94
2023-03-16T09:07:24.956Z,5.86
2023-03-16T09:08:24.896Z,5.90
2023-03-16T09:09:24.762Z,5.96
2023-03-16T09:10:24.741Z,5.99
2023-03-16T09:11:24.784Z,6.04
2023-03-16T09:12:24.770Z,6.06
2023-03-16T09:13:24.688Z,6.15
2023-03-16T09:14:24.710Z,6.19
2023-03-16T09:15:24.685Z,6.14
2023-03-16T09:16:24.720Z,6.33
2023-03-16T09:17:24.618Z,6.34
2023-03-16T09:18:24.602Z,6.34
2023-03-16T09:19:24.585Z,6.40
2023-03-16T09:20:34.771Z,6.48
2023-03-16T09:21:24.547Z,6.52
2023-03-16T09:22:24.543Z,6.64
2023-03-16T09:23:24.513Z,6.76
2023-03-16T09:24:24.508Z,6.81
2023-03-16T09:25:24.486Z,6.87
2023-03-16T09:26:24.488Z,6.94
2023-03-16T09:27:24.463Z,6.91
2023-03-16T09:28:24.428Z,7.06
2023-03-16T09:29:24.412Z,7.06
2023-03-16T09:30:24.566Z,7.05
2023-03-16T09:31:24.440Z,7.12
2023-03-16T09:32:24.443Z,7.13
2023-03-16T09:33:24.351Z,7.13
2023-03-16T09:35:24.315Z,7.21
2023-03-16T09:36:24.295Z,7.27
2023-03-16T09:37:24.288Z,7.28
2023-03-16T09:38:24.266Z,7.34
2023-03-16T09:39:24.246Z,7.49
2023-03-16T09:40:24.294Z,7.35
2023-03-16T09:41:24.220Z,7.45
2023-03-16T09:42:24.195Z,7.49
2023-03-16T09:43:24.182Z,7.61
2023-03-16T09:44:24.163Z,7.68
2023-03-16T09:45:24.149Z,7.64
2023-03-16T09:46:24.193Z,7.72
2023-03-16T09:47:24.119Z,7.85
2023-03-16T09:48:24.119Z,7.83
2023-03-16T09:49:24.086Z,7.85
2023-03-16T09:50:24.533Z,7.85
2023-03-16T09:51:24.113Z,7.82
2023-03-16T09:52:24.044Z,7.93
2023-03-16T09:53:24.024Z,8.01
2023-03-16T09:54:24.008Z,7.95
2023-03-16T09:55:23.990Z,7.95
2023-03-16T09:56:23.971Z,8.04
2023-03-16T09:57:23.991Z,8.01
2023-03-16T09:58:23.940Z,8.08
2023-03-16T09:59:23.933Z,8.07
2023-03-16T10:00:23.956Z,8.07
2023-03-16T10:01:23.967Z,8.07
2023-03-16T10:02:23.880Z,8.05
2023-03-16T10:03:23.914Z,8.08
2023-03-16T10:04:23.892Z,8.07
2023-03-16T10:05:23.848Z,8.07
2023-03-16T10:06:23.815Z,8.10
2023-03-16T10:07:23.806Z,8.19
2023-03-16T10:08:23.780Z,8.23
2023-03-16T10:09:23.791Z,8.22
2023-03-16T10:10:23.751Z,8.28
2023-03-16T10:11:23.731Z,8.33
2023-03-16T10:12:23.715Z,8.36
2023-03-16T10:13:23.771Z,8.30
2023-03-16T10:14:23.690Z,8.30
2023-03-16T10:15:23.670Z,8.25
2023-03-16T10:16:23.711Z,8.22
2023-03-16T10:17:23.635Z,8.19
2023-03-16T10:18:23.625Z,8.10
2023-03-16T10:19:23.630Z,8.10
2023-03-16T10:20:23.594Z,8.08
2023-03-16T10:21:23.590Z,8.11
2023-03-16T10:22:23.561Z,8.10
2023-03-16T10:23:23.538Z,8.00
2023-03-16T10:24:23.523Z,7.97
2023-03-16T10:25:23.522Z,8.05
2023-03-16T10:26:23.489Z,8.07
2023-03-16T10:27:23.477Z,8.02
2023-03-16T10:28:23.456Z,8.10
2023-03-16T10:29:23.468Z,8.10
2023-03-16T10:30:23.425Z,8.07
2023-03-16T10:31:23.477Z,8.04
2023-03-16T10:32:23.533Z,8.07
2023-03-16T10:33:23.372Z,8.07
2023-03-16T10:34:23.413Z,8.15
2023-03-16T10:35:23.342Z,8.05
2023-03-16T10:36:23.349Z,8.08
2023-03-16T10:37:23.305Z,8.12
2023-03-16T10:38:23.290Z,8.08
2023-03-16T10:39:23.275Z,8.12
2023-03-16T10:40:23.289Z,8.12
2023-03-16T10:41:23.242Z,8.15
2023-03-16T10:42:23.225Z,8.18
2023-03-16T10:43:23.209Z,8.15
2023-03-16T10:44:23.199Z,8.25
2023-03-16T10:45:23.182Z,8.25
2023-03-16T10:46:23.395Z,8.28
2023-03-16T10:47:23.265Z,8.25
2023-03-16T10:48:23.144Z,8.30
2023-03-16T10:49:23.118Z,8.34
2023-03-16T10:50:23.109Z,8.30
2023-03-16T10:51:23.106Z,8.41
2023-03-16T10:52:23.070Z,8.50
2023-03-16T10:53:23.077Z,8.53
2023-03-16T10:54:23.035Z,8.66
2023-03-16T10:55:23.015Z,8.62
2023-03-16T10:56:23.044Z,8.62
2023-03-16T10:57:22.987Z,8.73
2023-03-16T10:58:22.979Z,8.81
2023-03-16T10:59:22.975Z,8.83
2023-03-16T11:00:22.942Z,8.80
2023-03-16T11:01:22.942Z,8.92
2023-03-16T11:02:22.917Z,8.96
2023-03-16T11:03:22.887Z,8.94
2023-03-16T11:04:22.927Z,8.91
2023-03-16T11:05:22.856Z,8.92
2023-03-16T11:06:22.852Z,8.92
2023-03-16T11:07:22.849Z,8.94
2023-03-16T11:08:22.828Z,9.08
2023-03-16T11:09:22.801Z,9.05
2023-03-16T11:10:22.785Z,9.04
2023-03-16T11:11:22.786Z,9.08
2023-03-16T11:12:22.751Z,9.17
2023-03-16T11:13:22.775Z,9.21
2023-03-16T11:14:22.720Z,9.39
2023-03-16T11:15:26.241Z,9.40
2023-03-16T11:16:22.742Z,9.39
2023-03-16T11:17:22.666Z,9.48
2023-03-16T11:18:22.652Z,9.60
2023-03-16T11:19:22.631Z,9.64
2023-03-16T11:20:22.647Z,9.71
2023-03-16T11:21:22.627Z,9.74
2023-03-16T11:22:22.591Z,9.75
2023-03-16T11:23:22.573Z,9.78
2023-03-16T11:24:22.575Z,9.84
2023-03-16T11:25:22.548Z,9.86
2023-03-16T11:26:22.548Z,9.93
2023-03-16T11:27:22.567Z,9.94
2023-03-16T11:28:22.501Z,9.99
2023-03-16T11:29:22.478Z,9.93
2023-03-16T11:30:22.474Z,9.94
2023-03-16T11:31:22.551Z,10.07
2023-03-16T11:32:22.462Z,10.08
2023-03-16T11:33:22.425Z,10.05
2023-03-16T11:34:22.408Z,9.99
2023-03-16T11:35:22.396Z,9.90
2023-03-16T11:36:22.498Z,9.90
2023-03-16T11:37:22.359Z,9.97
2023-03-16T11:38:22.352Z,9.91
2023-03-16T11:39:22.330Z,9.76
2023-03-16T11:40:22.326Z,9.81
2023-03-16T11:41:22.310Z,9.86
2023-03-16T11:42:22.290Z,9.91
2023-03-16T11:43:22.352Z,9.90
2023-03-16T11:44:22.267Z,9.79
2023-03-16T11:45:22.246Z,9.78
2023-03-16T11:46:22.249Z,9.74
2023-03-16T11:47:22.215Z,9.71
2023-03-16T11:48:22.207Z,9.58
2023-03-16T11:49:22.223Z,9.65
2023-03-16T11:50:22.170Z,9.60
2023-03-16T11:51:22.150Z,9.57
2023-03-16T11:52:22.138Z,9.51
2023-03-16T11:53:22.123Z,9.56
2023-03-16T11:54:22.101Z,9.38
2023-03-16T11:55:22.127Z,9.35
2023-03-16T11:56:22.114Z,9.35
2023-03-16T11:57:22.060Z,9.36
2023-03-16T11:58:22.063Z,9.35
2023-03-16T11:59:22.041Z,9.43
2023-03-16T12:00:22.010Z,9.46
2023-03-16T12:01:22.054Z,9.31
2023-03-16T12:02:22.173Z,9.36
2023-03-16T12:03:21.975Z,9.38
2023-03-16T12:04:22.078Z,9.33
2023-03-16T12:05:21.926Z,9.35
2023-03-16T12:06:23.495Z,9.36
2023-03-16T12:07:21.943Z,9.29
2023-03-16T12:08:21.877Z,9.10
2023-03-16T12:09:21.865Z,9.05
2023-03-16T12:10:21.847Z,9.13
2023-03-16T12:11:21.828Z,8.92
2023-03-16T12:12:21.850Z,8.94
2023-03-16T12:13:21.814Z,8.91
2023-03-16T12:14:21.807Z,8.87
2023-03-16T12:15:21.770Z,8.83
2023-03-16T12:16:21.871Z,8.86
2023-03-16T12:17:21.733Z,8.91
2023-03-16T12:18:21.742Z,8.94
2023-03-16T12:19:21.710Z,8.95
2023-03-16T12:20:21.685Z,8.95
2023-03-16T12:21:21.676Z,8.89
2023-03-16T12:22:21.760Z,8.94
2023-03-16T12:23:21.636Z,8.96
2023-03-16T12:24:21.697Z,8.95
2023-03-16T12:25:21.601Z,8.95
2023-03-16T12:26:21.587Z,8.86
2023-03-16T12:27:21.586Z,8.96
2023-03-16T12:28:21.562Z,8.95
2023-03-16T12:29:21.561Z,9.08
2023-03-16T12:30:21.532Z,9.10
2023-03-16T12:31:21.600Z,9.24
2023-03-16T12:32:21.517Z,9.32
2023-03-16T12:33:21.502Z,9.39
2023-03-16T12:34:21.499Z,9.51
2023-03-16T12:35:21.437Z,9.60
2023-03-16T12:36:21.429Z,9.68
2023-03-16T12:37:21.410Z,9.75
2023-03-16T12:38:21.420Z,9.84
2023-03-16T12:39:21.388Z,9.93
2023-03-16T12:40:21.364Z,9.99
2023-03-16T12:41:21.378Z,10.12
2023-03-16T12:42:21.344Z,10.27
2023-03-16T12:43:21.344Z,10.36
2023-03-16T12:44:21.392Z,10.42
2023-03-16T12:45:21.294Z,10.45
2023-03-16T12:46:21.374Z,10.53
2023-03-16T12:47:21.283Z,10.60
2023-03-16T12:48:21.238Z,10.71
2023-03-16T12:49:21.239Z,10.70
2023-03-16T12:50:21.208Z,10.79
2023-03-16T12:51:21.229Z,10.88
2023-03-16T12:52:21.174Z,10.94
2023-03-16T12:53:21.169Z,10.97
2023-03-16T12:54:21.152Z,10.91
2023-03-16T12:55:21.214Z,10.88
2023-03-16T12:56:21.116Z,10.68
2023-03-16T12:57:21.100Z,10.71
2023-03-16T12:58:21.085Z,10.51
2023-03-16T12:59:21.095Z,10.53
2023-03-16T13:00:21.070Z,10.36
2023-03-16T13:01:21.211Z,10.38
2023-03-16T13:02:21.026Z,10.38
2023-03-16T13:03:21.013Z,10.32
2023-03-16T13:04:21.128Z,10.38
2023-03-16T13:05:21.025Z,10.41
2023-03-16T13:06:20.968Z,10.30
2023-03-16T13:07:20.954Z,10.27
2023-03-16T13:08:20.949Z,10.26
2023-03-16T13:09:20.930Z,10.18
2023-03-16T13:10:20.972Z,10.14
2023-03-16T13:11:20.935Z,10.09
2023-03-16T13:12:20.928Z,10.09
2023-03-16T13:13:20.913Z,10.11
2023-03-16T13:14:20.894Z,10.14
2023-03-16T13:15:20.903Z,10.18
2023-03-16T13:16:21.007Z,10.18